Ames Lake, Washington
Current Conditions -  °F | °C
As of 3:53 AM on Saturday 01 Nov 2014 (Local Time) from KBFI Reporting Station
Overcast Overcast  
Wind Chill: 51°   Ceiling: 700
Heat Index: 51°   Visibility: 10mi
Dew Point: 47°   Wind: 3mph
Humidity: 86%   Direction: 130°SE
Pressure: 29.86"   Gusts: NA
Location:  47.6833°N, 122.123°W
Report Text: KBFI 011053Z 13003KT 10SM OVC007 11/08 A2986 RMK AO2 CIG 006V010 SLP109 T01060083
Loading
Personal Weather Stations






























Interactive Weather Map
Tropical Storm Tracking
New forecast layout! Learn more

10-Day Weather Forecast

Advertisements
Track Severe Weather on mobile